sensor_id;sensor_type;location;lat;lon;timestamp;temperature;humidity
23188;DHT22;11762;59.878;17.686;2023-12-04T00:31:11;-11.90;99.90
23188;DHT22;11762;59.878;17.686;2023-12-04T00:33:38;-11.90;99.90
23188;DHT22;11762;59.878;17.686;2023-12-04T00:36:05;-11.90;99.90
23188;DHT22;11762;59.878;17.686;2023-12-04T00:38:32;-11.90;99.90
23188;DHT22;11762;59.878;17.686;2023-12-04T00:40:59;-11.90;99.90
23188;DHT22;11762;59.878;17.686;2023-12-04T00:43:26;-11.90;99.90
23188;DHT22;11762;59.878;17.686;2023-12-04T00:45:53;-11.90;99.90
23188;DHT22;11762;59.878;17.686;2023-12-04T00:48:21;-11.90;99.90
23188;DHT22;11762;59.878;17.686;2023-12-04T00:50:48;-12.00;99.90
23188;DHT22;11762;59.878;17.686;2023-12-04T00:53:15;-12.10;99.90
23188;DHT22;11762;59.878;17.686;2023-12-04T00:55:42;-12.00;99.90
23188;DHT22;11762;59.878;17.686;2023-12-04T00:58:09;-12.00;99.90
23188;DHT22;11762;59.878;17.686;2023-12-04T01:00:36;-11.90;99.90
23188;DHT22;11762;59.878;17.686;2023-12-04T01:03:03;-12.00;99.90
23188;DHT22;11762;59.878;17.686;2023-12-04T01:05:31;-12.00;99.90
23188;DHT22;11762;59.878;17.686;2023-12-04T01:07:58;-12.00;99.90
23188;DHT22;11762;59.878;17.686;2023-12-04T01:10:25;-12.10;99.90
23188;DHT22;11762;59.878;17.686;2023-12-04T01:12:52;-12.10;99.90
23188;DHT22;11762;59.878;17.686;2023-12-04T01:15:19;-12.20;99.90
23188;DHT22;11762;59.878;17.686;2023-12-04T01:17:46;-12.10;99.90
23188;DHT22;11762;59.878;17.686;2023-12-04T01:20:13;-12.10;99.90
23188;DHT22;11762;59.878;17.686;2023-12-04T01:22:42;-12.10;99.90
23188;DHT22;11762;59.878;17.686;2023-12-04T01:25:09;-12.10;99.90
23188;DHT22;11762;59.878;17.686;2023-12-04T01:27:36;-12.00;99.90
23188;DHT22;11762;59.878;17.686;2023-12-04T01:30:04;-12.00;99.90
23188;DHT22;11762;59.878;17.686;2023-12-04T01:32:33;-12.10;99.90
23188;DHT22;11762;59.878;17.686;2023-12-04T01:35:01;-12.10;99.90
23188;DHT22;11762;59.878;17.686;2023-12-04T01:37:28;-12.10;99.90
23188;DHT22;11762;59.878;17.686;2023-12-04T01:39:56;-12.00;99.90
23188;DHT22;11762;59.878;17.686;2023-12-04T01:42:23;-12.00;99.90
23188;DHT22;11762;59.878;17.686;2023-12-04T01:44:50;-11.80;99.90
23188;DHT22;11762;59.878;17.686;2023-12-04T01:47:18;-11.80;99.90
23188;DHT22;11762;59.878;17.686;2023-12-04T01:49:45;-11.70;99.90
23188;DHT22;11762;59.878;17.686;2023-12-04T01:52:12;-11.70;99.90
23188;DHT22;11762;59.878;17.686;2023-12-04T01:54:39;-11.60;99.90
23188;DHT22;11762;59.878;17.686;2023-12-04T01:57:08;-11.50;99.90
23188;DHT22;11762;59.878;17.686;2023-12-04T01:59:36;-11.40;99.90
23188;DHT22;11762;59.878;17.686;2023-12-04T02:02:04;-11.30;99.90
23188;DHT22;11762;59.878;17.686;2023-12-04T02:04:31;-11.30;99.90
23188;DHT22;11762;59.878;17.686;2023-12-04T02:06:59;-11.20;99.90
23188;DHT22;11762;59.878;17.686;2023-12-04T02:09:26;-11.10;99.90
23188;DHT22;11762;59.878;17.686;2023-12-04T02:11:53;-11.00;99.90
23188;DHT22;11762;59.878;17.686;2023-12-04T02:14:21;-11.00;99.90
23188;DHT22;11762;59.878;17.686;2023-12-04T02:16:49;-11.00;99.90
23188;DHT22;11762;59.878;17.686;2023-12-04T02:19:17;-11.00;99.90
23188;DHT22;11762;59.878;17.686;2023-12-04T02:21:44;-10.90;99.90
23188;DHT22;11762;59.878;17.686;2023-12-04T02:24:13;-10.80;99.90
23188;DHT22;11762;59.878;17.686;2023-12-04T02:26:52;-10.80;99.90
23188;DHT22;11762;59.878;17.686;2023-12-04T02:29:23;-10.80;99.90
23188;DHT22;11762;59.878;17.686;2023-12-04T02:31:55;-10.80;99.90
23188;DHT22;11762;59.878;17.686;2023-12-04T02:34:23;-10.80;99.90
23188;DHT22;11762;59.878;17.686;2023-12-04T02:36:51;-10.80;99.90
23188;DHT22;11762;59.878;17.686;2023-12-04T02:39:20;-10.80;99.90
23188;DHT22;11762;59.878;17.686;2023-12-04T02:41:47;-10.80;99.90
23188;DHT22;11762;59.878;17.686;2023-12-04T02:44:15;-10.80;99.90
23188;DHT22;11762;59.878;17.686;2023-12-04T02:46:42;-10.80;99.90
23188;DHT22;11762;59.878;17.686;2023-12-04T02:49:09;-10.70;99.90
23188;DHT22;11762;59.878;17.686;2023-12-04T02:51:36;-10.70;99.90
23188;DHT22;11762;59.878;17.686;2023-12-04T02:54:03;-10.70;99.90
23188;DHT22;11762;59.878;17.686;2023-12-04T02:56:31;-10.60;99.90
23188;DHT22;11762;59.878;17.686;2023-12-04T02:58:58;-10.60;99.90
23188;DHT22;11762;59.878;17.686;2023-12-04T03:01:25;-10.50;99.90
23188;DHT22;11762;59.878;17.686;2023-12-04T03:03:52;-10.50;99.90
23188;DHT22;11762;59.878;17.686;2023-12-04T03:06:20;-10.40;99.90
23188;DHT22;11762;59.878;17.686;2023-12-04T03:08:47;-10.40;99.90
23188;DHT22;11762;59.878;17.686;2023-12-04T03:11:14;-10.40;99.90
23188;DHT22;11762;59.878;17.686;2023-12-04T03:13:42;-10.40;99.90
23188;DHT22;11762;59.878;17.686;2023-12-04T03:16:15;-10.40;99.90
23188;DHT22;11762;59.878;17.686;2023-12-04T03:18:42;-10.40;99.90
23188;DHT22;11762;59.878;17.686;2023-12-04T03:21:09;-10.40;99.90
23188;DHT22;11762;59.878;17.686;2023-12-04T03:23:36;-10.40;99.90
23188;DHT22;11762;59.878;17.686;2023-12-04T03:26:04;-10.40;99.90
23188;DHT22;11762;59.878;17.686;2023-12-04T03:28:31;-10.40;99.90
23188;DHT22;11762;59.878;17.686;2023-12-04T03:30:59;-10.40;99.90
23188;DHT22;11762;59.878;17.686;2023-12-04T03:33:26;-10.50;99.90
23188;DHT22;11762;59.878;17.686;2023-12-04T03:35:53;-10.50;99.90
23188;DHT22;11762;59.878;17.686;2023-12-04T03:38:20;-10.50;99.90
23188;DHT22;11762;59.878;17.686;2023-12-04T03:40:47;-10.50;99.90
23188;DHT22;11762;59.878;17.686;2023-12-04T03:43:14;-10.60;99.90
23188;DHT22;11762;59.878;17.686;2023-12-04T03:45:41;-10.60;99.90
23188;DHT22;11762;59.878;17.686;2023-12-04T03:48:09;-10.70;99.90
23188;DHT22;11762;59.878;17.686;2023-12-04T03:50:36;-10.80;99.90
23188;DHT22;11762;59.878;17.686;2023-12-04T03:53:03;-10.80;99.90
23188;DHT22;11762;59.878;17.686;2023-12-04T03:55:30;-10.80;99.90
23188;DHT22;11762;59.878;17.686;2023-12-04T03:57:58;-10.80;99.90
23188;DHT22;11762;59.878;17.686;2023-12-04T04:00:25;-10.80;99.90
23188;DHT22;11762;59.878;17.686;2023-12-04T04:02:52;-10.80;99.90
23188;DHT22;11762;59.878;17.686;2023-12-04T04:05:21;-10.80;99.90
23188;DHT22;11762;59.878;17.686;2023-12-04T04:07:48;-10.70;99.90
23188;DHT22;11762;59.878;17.686;2023-12-04T04:10:15;-10.80;99.90
23188;DHT22;11762;59.878;17.686;2023-12-04T04:12:42;-10.80;99.90
23188;DHT22;11762;59.878;17.686;2023-12-04T04:15:09;-10.80;99.90
23188;DHT22;11762;59.878;17.686;2023-12-04T04:17:36;-10.80;99.90
23188;DHT22;11762;59.878;17.686;2023-12-04T04:20:04;-10.80;99.90
23188;DHT22;11762;59.878;17.686;2023-12-04T04:22:32;-10.80;99.90
23188;DHT22;11762;59.878;17.686;2023-12-04T04:25:03;-10.80;99.90
23188;DHT22;11762;59.878;17.686;2023-12-04T04:27:31;-10.80;99.90
23188;DHT22;11762;59.878;17.686;2023-12-04T04:29:58;-10.80;99.90
23188;DHT22;11762;59.878;17.686;2023-12-04T04:32:25;-10.90;99.90
23188;DHT22;11762;59.878;17.686;2023-12-04T04:34:52;-10.90;99.90
23188;DHT22;11762;59.878;17.686;2023-12-04T04:37:19;-10.90;99.90
23188;DHT22;11762;59.878;17.686;2023-12-04T04:39:47;-10.90;99.90
23188;DHT22;11762;59.878;17.686;2023-12-04T04:42:14;-10.90;99.90
23188;DHT22;11762;59.878;17.686;2023-12-04T04:44:41;-10.80;99.90
23188;DHT22;11762;59.878;17.686;2023-12-04T04:47:08;-10.80;99.90
23188;DHT22;11762;59.878;17.686;2023-12-04T04:49:35;-10.80;99.90
23188;DHT22;11762;59.878;17.686;2023-12-04T04:52:02;-10.80;99.90
23188;DHT22;11762;59.878;17.686;2023-12-04T04:54:31;-10.70;99.90
23188;DHT22;11762;59.878;17.686;2023-12-04T04:56:59;-10.60;99.90
23188;DHT22;11762;59.878;17.686;2023-12-04T04:59:26;-10.60;99.90
23188;DHT22;11762;59.878;17.686;2023-12-04T05:01:56;-10.60;99.90
23188;DHT22;11762;59.878;17.686;2023-12-04T05:04:23;-10.50;99.90
23188;DHT22;11762;59.878;17.686;2023-12-04T05:06:50;-10.40;99.90
23188;DHT22;11762;59.878;17.686;2023-12-04T05:09:17;-10.40;99.90
23188;DHT22;11762;59.878;17.686;2023-12-04T05:11:44;-10.30;99.90
23188;DHT22;11762;59.878;17.686;2023-12-04T05:14:12;-10.30;99.90
23188;DHT22;11762;59.878;17.686;2023-12-04T05:16:39;-10.30;99.90
23188;DHT22;11762;59.878;17.686;2023-12-04T05:19:06;-10.30;99.90
23188;DHT22;11762;59.878;17.686;2023-12-04T05:21:33;-10.30;99.90
23188;DHT22;11762;59.878;17.686;2023-12-04T05:24:00;-10.40;99.90
23188;DHT22;11762;59.878;17.686;2023-12-04T05:26:27;-10.50;99.90
23188;DHT22;11762;59.878;17.686;2023-12-04T05:28:54;-10.60;99.90
23188;DHT22;11762;59.878;17.686;2023-12-04T05:31:22;-10.60;99.90
23188;DHT22;11762;59.878;17.686;2023-12-04T05:33:49;-10.60;99.90
23188;DHT22;11762;59.878;17.686;2023-12-04T05:36:16;-10.60;99.90
23188;DHT22;11762;59.878;17.686;2023-12-04T05:38:43;-10.70;99.90
23188;DHT22;11762;59.878;17.686;2023-12-04T05:41:10;-10.70;99.90
23188;DHT22;11762;59.878;17.686;2023-12-04T05:43:37;-10.70;99.90
23188;DHT22;11762;59.878;17.686;2023-12-04T05:46:04;-10.70;99.90
23188;DHT22;11762;59.878;17.686;2023-12-04T05:48:32;-10.60;99.90
23188;DHT22;11762;59.878;17.686;2023-12-04T05:50:59;-10.70;99.90
23188;DHT22;11762;59.878;17.686;2023-12-04T05:53:26;-10.70;99.90
23188;DHT22;11762;59.878;17.686;2023-12-04T05:55:54;-10.70;99.90
23188;DHT22;11762;59.878;17.686;2023-12-04T05:58:21;-10.70;99.90
23188;DHT22;11762;59.878;17.686;2023-12-04T06:00:48;-10.60;99.90
23188;DHT22;11762;59.878;17.686;2023-12-04T06:03:15;-10.60;99.90
23188;DHT22;11762;59.878;17.686;2023-12-04T06:05:43;-10.60;99.90
23188;DHT22;11762;59.878;17.686;2023-12-04T06:08:10;-10.50;99.90
23188;DHT22;11762;59.878;17.686;2023-12-04T06:10:37;-10.50;99.90
23188;DHT22;11762;59.878;17.686;2023-12-04T06:13:04;-10.50;99.90
23188;DHT22;11762;59.878;17.686;2023-12-04T06:15:31;-10.50;99.90
23188;DHT22;11762;59.878;17.686;2023-12-04T06:17:58;-10.50;99.90
23188;DHT22;11762;59.878;17.686;2023-12-04T06:20:25;-10.50;99.90
23188;DHT22;11762;59.878;17.686;2023-12-04T06:22:54;-10.50;99.90
23188;DHT22;11762;59.878;17.686;2023-12-04T06:25:21;-10.50;99.90
23188;DHT22;11762;59.878;17.686;2023-12-04T06:27:49;-10.40;99.90
23188;DHT22;11762;59.878;17.686;2023-12-04T06:30:18;-10.40;99.90
23188;DHT22;11762;59.878;17.686;2023-12-04T06:32:45;-10.30;99.90
23188;DHT22;11762;59.878;17.686;2023-12-04T06:35:13;-10.20;99.90
23188;DHT22;11762;59.878;17.686;2023-12-04T06:37:41;-10.20;99.90
23188;DHT22;11762;59.878;17.686;2023-12-04T06:40:11;-10.10;99.90
23188;DHT22;11762;59.878;17.686;2023-12-04T06:42:39;-10.10;99.90
23188;DHT22;11762;59.878;17.686;2023-12-04T06:45:07;-10.00;99.90
23188;DHT22;11762;59.878;17.686;2023-12-04T06:47:34;-9.90;99.90
23188;DHT22;11762;59.878;17.686;2023-12-04T06:50:03;-9.90;99.90
23188;DHT22;11762;59.878;17.686;2023-12-04T06:52:30;-9.80;99.90
23188;DHT22;11762;59.878;17.686;2023-12-04T06:54:57;-9.80;99.90
23188;DHT22;11762;59.878;17.686;2023-12-04T06:57:25;-9.70;99.90
23188;DHT22;11762;59.878;17.686;2023-12-04T06:59:52;-9.70;99.90
23188;DHT22;11762;59.878;17.686;2023-12-04T07:02:19;-9.60;99.90
23188;DHT22;11762;59.878;17.686;2023-12-04T07:04:46;-9.60;99.90
23188;DHT22;11762;59.878;17.686;2023-12-04T07:07:13;-9.50;99.90
23188;DHT22;11762;59.878;17.686;2023-12-04T07:09:40;-9.40;99.90
23188;DHT22;11762;59.878;17.686;2023-12-04T07:12:07;-9.30;99.90
23188;DHT22;11762;59.878;17.686;2023-12-04T07:14:35;-9.00;99.90
23188;DHT22;11762;59.878;17.686;2023-12-04T07:17:03;-9.10;99.90
23188;DHT22;11762;59.878;17.686;2023-12-04T07:19:30;-9.10;99.90
23188;DHT22;11762;59.878;17.686;2023-12-04T07:21:57;-9.10;99.90
23188;DHT22;11762;59.878;17.686;2023-12-04T07:24:24;-9.10;99.90
23188;DHT22;11762;59.878;17.686;2023-12-04T07:26:52;-9.10;99.90
23188;DHT22;11762;59.878;17.686;2023-12-04T07:29:18;-9.10;99.90
23188;DHT22;11762;59.878;17.686;2023-12-04T07:31:47;-9.00;99.90
23188;DHT22;11762;59.878;17.686;2023-12-04T07:34:14;-8.90;99.90
23188;DHT22;11762;59.878;17.686;2023-12-04T07:36:41;-8.80;99.90
23188;DHT22;11762;59.878;17.686;2023-12-04T07:39:09;-8.70;99.90
23188;DHT22;11762;59.878;17.686;2023-12-04T07:41:36;-8.70;99.90
23188;DHT22;11762;59.878;17.686;2023-12-04T07:44:04;-8.60;99.90
23188;DHT22;11762;59.878;17.686;2023-12-04T07:46:31;-8.50;99.90
23188;DHT22;11762;59.878;17.686;2023-12-04T07:48:59;-8.40;99.90
23188;DHT22;11762;59.878;17.686;2023-12-04T07:51:26;-8.30;99.90
23188;DHT22;11762;59.878;17.686;2023-12-04T07:53:53;-8.30;99.90
23188;DHT22;11762;59.878;17.686;2023-12-04T07:56:20;-8.30;99.90
23188;DHT22;11762;59.878;17.686;2023-12-04T07:58:47;-8.20;99.90
23188;DHT22;11762;59.878;17.686;2023-12-04T08:01:15;-8.20;99.90
23188;DHT22;11762;59.878;17.686;2023-12-04T08:03:41;-8.10;99.90
23188;DHT22;11762;59.878;17.686;2023-12-04T08:06:10;-8.10;99.90
23188;DHT22;11762;59.878;17.686;2023-12-04T08:08:37;-8.00;99.90
23188;DHT22;11762;59.878;17.686;2023-12-04T08:11:04;-8.00;99.90
23188;DHT22;11762;59.878;17.686;2023-12-04T08:13:31;-8.00;99.90
23188;DHT22;11762;59.878;17.686;2023-12-04T08:15:58;-8.00;99.90
23188;DHT22;11762;59.878;17.686;2023-12-04T08:18:26;-7.90;99.90
23188;DHT22;11762;59.878;17.686;2023-12-04T08:20:53;-7.90;99.90
23188;DHT22;11762;59.878;17.686;2023-12-04T08:23:21;-7.90;99.90
23188;DHT22;11762;59.878;17.686;2023-12-04T08:25:48;-7.90;99.90
23188;DHT22;11762;59.878;17.686;2023-12-04T08:28:15;-7.90;99.90
23188;DHT22;11762;59.878;17.686;2023-12-04T08:30:42;-7.90;99.90
23188;DHT22;11762;59.878;17.686;2023-12-04T08:33:09;-7.90;99.90
23188;DHT22;11762;59.878;17.686;2023-12-04T08:35:36;-7.90;99.90
23188;DHT22;11762;59.878;17.686;2023-12-04T08:38:03;-7.90;99.90
23188;DHT22;11762;59.878;17.686;2023-12-04T08:40:31;-7.80;99.90
23188;DHT22;11762;59.878;17.686;2023-12-04T08:42:58;-7.80;99.90
23188;DHT22;11762;59.878;17.686;2023-12-04T08:45:25;-7.90;99.90
23188;DHT22;11762;59.878;17.686;2023-12-04T08:47:52;-7.90;99.90
23188;DHT22;11762;59.878;17.686;2023-12-04T08:50:19;-8.00;99.90
23188;DHT22;11762;59.878;17.686;2023-12-04T08:52:46;-8.00;99.90
23188;DHT22;11762;59.878;17.686;2023-12-04T08:55:13;-8.00;99.90
23188;DHT22;11762;59.878;17.686;2023-12-04T08:57:41;-8.00;99.90
23188;DHT22;11762;59.878;17.686;2023-12-04T09:00:09;-8.00;99.90
23188;DHT22;11762;59.878;17.686;2023-12-04T09:02:36;-8.10;99.90
23188;DHT22;11762;59.878;17.686;2023-12-04T09:05:03;-8.10;99.90
23188;DHT22;11762;59.878;17.686;2023-12-04T09:07:30;-8.10;99.90
23188;DHT22;11762;59.878;17.686;2023-12-04T09:09:58;-8.10;99.90
23188;DHT22;11762;59.878;17.686;2023-12-04T09:12:24;-8.20;99.90
23188;DHT22;11762;59.878;17.686;2023-12-04T09:14:53;-8.20;99.90
23188;DHT22;11762;59.878;17.686;2023-12-04T09:17:20;-8.20;99.90
23188;DHT22;11762;59.878;17.686;2023-12-04T09:19:47;-8.20;99.90
23188;DHT22;11762;59.878;17.686;2023-12-04T09:22:14;-8.20;99.90
23188;DHT22;11762;59.878;17.686;2023-12-04T09:24:41;-8.30;99.90
23188;DHT22;11762;59.878;17.686;2023-12-04T09:27:08;-8.20;99.90
23188;DHT22;11762;59.878;17.686;2023-12-04T09:29:35;-8.20;99.90
23188;DHT22;11762;59.878;17.686;2023-12-04T09:32:03;-8.20;99.90
23188;DHT22;11762;59.878;17.686;2023-12-04T09:34:30;-8.20;99.90
23188;DHT22;11762;59.878;17.686;2023-12-04T09:36:57;-8.30;99.90
23188;DHT22;11762;59.878;17.686;2023-12-04T09:39:24;-8.30;99.90
23188;DHT22;11762;59.878;17.686;2023-12-04T09:41:52;-8.30;99.90
23188;DHT22;11762;59.878;17.686;2023-12-04T09:44:19;-8.30;99.90
23188;DHT22;11762;59.878;17.686;2023-12-04T09:46:48;-8.40;99.90
23188;DHT22;11762;59.878;17.686;2023-12-04T09:49:16;-8.30;99.90
23188;DHT22;11762;59.878;17.686;2023-12-04T09:51:44;-8.30;99.90
23188;DHT22;11762;59.878;17.686;2023-12-04T09:54:11;-8.30;99.90
23188;DHT22;11762;59.878;17.686;2023-12-04T09:56:39;-8.30;99.90
23188;DHT22;11762;59.878;17.686;2023-12-04T09:59:06;-8.30;99.90
23188;DHT22;11762;59.878;17.686;2023-12-04T10:01:35;-8.20;99.90
23188;DHT22;11762;59.878;17.686;2023-12-04T10:04:03;-8.30;99.90
23188;DHT22;11762;59.878;17.686;2023-12-04T10:06:33;-8.30;99.90
23188;DHT22;11762;59.878;17.686;2023-12-04T10:09:01;-8.30;99.90
23188;DHT22;11762;59.878;17.686;2023-12-04T10:11:29;-8.30;99.90
23188;DHT22;11762;59.878;17.686;2023-12-04T10:13:56;-8.20;99.90
23188;DHT22;11762;59.878;17.686;2023-12-04T10:16:33;-8.20;99.90
23188;DHT22;11762;59.878;17.686;2023-12-04T10:19:25;-8.10;99.90
23188;DHT22;11762;59.878;17.686;2023-12-04T10:21:55;-8.10;99.90
23188;DHT22;11762;59.878;17.686;2023-12-04T10:24:30;-8.10;99.90
23188;DHT22;11762;59.878;17.686;2023-12-04T10:26:58;-8.00;99.90
23188;DHT22;11762;59.878;17.686;2023-12-04T10:29:27;-8.00;99.90
23188;DHT22;11762;59.878;17.686;2023-12-04T10:31:55;-8.00;99.90
23188;DHT22;11762;59.878;17.686;2023-12-04T10:34:25;-8.00;99.90
23188;DHT22;11762;59.878;17.686;2023-12-04T10:36:55;-8.00;99.90
23188;DHT22;11762;59.878;17.686;2023-12-04T10:39:23;-7.90;99.90
23188;DHT22;11762;59.878;17.686;2023-12-04T10:42:01;-8.00;99.90
23188;DHT22;11762;59.878;17.686;2023-12-04T10:44:30;-8.00;99.90
23188;DHT22;11762;59.878;17.686;2023-12-04T10:47:00;-8.00;99.90
23188;DHT22;11762;59.878;17.686;2023-12-04T10:49:27;-7.90;99.90
23188;DHT22;11762;59.878;17.686;2023-12-04T10:52:00;-7.90;99.90
23188;DHT22;11762;59.878;17.686;2023-12-04T10:54:27;-7.90;99.90
23188;DHT22;11762;59.878;17.686;2023-12-04T10:56:58;-7.90;99.90
23188;DHT22;11762;59.878;17.686;2023-12-04T10:59:30;-7.90;99.90
23188;DHT22;11762;59.878;17.686;2023-12-04T11:02:01;-7.80;99.90
23188;DHT22;11762;59.878;17.686;2023-12-04T11:04:31;-7.80;99.90
23188;DHT22;11762;59.878;17.686;2023-12-04T11:07:02;-7.80;99.90
23188;DHT22;11762;59.878;17.686;2023-12-04T11:09:31;-7.80;99.90
23188;DHT22;11762;59.878;17.686;2023-12-04T11:12:03;-7.90;99.90
23188;DHT22;11762;59.878;17.686;2023-12-04T11:14:35;-7.90;99.90
23188;DHT22;11762;59.878;17.686;2023-12-04T11:17:07;-7.80;99.90
23188;DHT22;11762;59.878;17.686;2023-12-04T11:19:45;-7.80;99.90
23188;DHT22;11762;59.878;17.686;2023-12-04T11:22:15;-7.80;99.90
23188;DHT22;11762;59.878;17.686;2023-12-04T11:24:46;-7.80;99.90
23188;DHT22;11762;59.878;17.686;2023-12-04T11:27:14;-7.80;99.90
23188;DHT22;11762;59.878;17.686;2023-12-04T11:29:41;-7.80;99.90
23188;DHT22;11762;59.878;17.686;2023-12-04T11:32:13;-7.80;99.90
23188;DHT22;11762;59.878;17.686;2023-12-04T11:34:47;-7.70;99.90
23188;DHT22;11762;59.878;17.686;2023-12-04T11:37:16;-7.70;99.90
23188;DHT22;11762;59.878;17.686;2023-12-04T11:39:46;-7.80;99.90
23188;DHT22;11762;59.878;17.686;2023-12-04T11:42:13;-7.80;99.90
23188;DHT22;11762;59.878;17.686;2023-12-04T11:44:45;-7.80;99.90
23188;DHT22;11762;59.878;17.686;2023-12-04T11:47:14;-7.90;99.90
23188;DHT22;11762;59.878;17.686;2023-12-04T11:49:42;-7.90;99.90
23188;DHT22;11762;59.878;17.686;2023-12-04T11:52:10;-7.90;99.90
23188;DHT22;11762;59.878;17.686;2023-12-04T11:54:58;-8.10;99.90
23188;DHT22;11762;59.878;17.686;2023-12-04T11:57:26;-8.10;99.90
23188;DHT22;11762;59.878;17.686;2023-12-04T12:00:08;-8.10;99.90
23188;DHT22;11762;59.878;17.686;2023-12-04T12:02:38;-8.00;99.90
23188;DHT22;11762;59.878;17.686;2023-12-04T12:05:05;-8.00;99.90
23188;DHT22;11762;59.878;17.686;2023-12-04T12:07:33;-8.10;99.90
23188;DHT22;11762;59.878;17.686;2023-12-04T12:10:02;-8.20;99.90
23188;DHT22;11762;59.878;17.686;2023-12-04T12:12:30;-8.20;99.90
23188;DHT22;11762;59.878;17.686;2023-12-04T12:14:57;-8.10;99.90
23188;DHT22;11762;59.878;17.686;2023-12-04T12:17:24;-8.00;99.90
23188;DHT22;11762;59.878;17.686;2023-12-04T12:19:51;-8.00;99.90
23188;DHT22;11762;59.878;17.686;2023-12-04T12:22:18;-8.00;99.90
23188;DHT22;11762;59.878;17.686;2023-12-04T12:24:45;-8.10;99.90
23188;DHT22;11762;59.878;17.686;2023-12-04T12:27:13;-8.20;99.90
23188;DHT22;11762;59.878;17.686;2023-12-04T12:29:40;-8.20;99.90
23188;DHT22;11762;59.878;17.686;2023-12-04T12:32:08;-8.10;99.90
23188;DHT22;11762;59.878;17.686;2023-12-04T12:34:35;-8.20;99.90
23188;DHT22;11762;59.878;17.686;2023-12-04T12:37:03;-8.20;99.90
23188;DHT22;11762;59.878;17.686;2023-12-04T12:39:31;-8.20;99.90
23188;DHT22;11762;59.878;17.686;2023-12-04T12:41:58;-8.20;99.90
23188;DHT22;11762;59.878;17.686;2023-12-04T12:44:27;-8.30;99.90
23188;DHT22;11762;59.878;17.686;2023-12-04T12:46:54;-8.50;99.90
23188;DHT22;11762;59.878;17.686;2023-12-04T12:49:21;-8.60;99.90
23188;DHT22;11762;59.878;17.686;2023-12-04T12:51:48;-8.70;99.90
23188;DHT22;11762;59.878;17.686;2023-12-04T12:54:15;-9.00;99.90
23188;DHT22;11762;59.878;17.686;2023-12-04T12:56:42;-9.00;99.90
23188;DHT22;11762;59.878;17.686;2023-12-04T12:59:09;-9.00;99.90
23188;DHT22;11762;59.878;17.686;2023-12-04T13:01:37;-9.10;99.90
23188;DHT22;11762;59.878;17.686;2023-12-04T13:04:04;-9.20;99.90
23188;DHT22;11762;59.878;17.686;2023-12-04T13:06:31;-9.30;99.90
23188;DHT22;11762;59.878;17.686;2023-12-04T13:08:59;-9.30;99.90
23188;DHT22;11762;59.878;17.686;2023-12-04T13:11:26;-9.30;99.90
23188;DHT22;11762;59.878;17.686;2023-12-04T13:13:54;-9.30;99.90
23188;DHT22;11762;59.878;17.686;2023-12-04T13:16:23;-9.30;99.90
23188;DHT22;11762;59.878;17.686;2023-12-04T13:18:51;-9.30;99.90
23188;DHT22;11762;59.878;17.686;2023-12-04T13:21:18;-9.20;99.90
23188;DHT22;11762;59.878;17.686;2023-12-04T13:23:45;-9.20;99.90
23188;DHT22;11762;59.878;17.686;2023-12-04T13:26:12;-9.20;99.90
23188;DHT22;11762;59.878;17.686;2023-12-04T13:28:39;-9.10;99.90
23188;DHT22;11762;59.878;17.686;2023-12-04T13:31:06;-9.10;99.90
23188;DHT22;11762;59.878;17.686;2023-12-04T13:33:33;-9.10;99.90
23188;DHT22;11762;59.878;17.686;2023-12-04T13:36:01;-9.10;99.90
23188;DHT22;11762;59.878;17.686;2023-12-04T13:38:30;-9.10;99.90
23188;DHT22;11762;59.878;17.686;2023-12-04T13:40:58;-9.10;99.90
23188;DHT22;11762;59.878;17.686;2023-12-04T13:43:34;-9.20;99.90
23188;DHT22;11762;59.878;17.686;2023-12-04T13:46:18;-9.20;99.90
23188;DHT22;11762;59.878;17.686;2023-12-04T13:48:45;-9.20;99.90
23188;DHT22;11762;59.878;17.686;2023-12-04T13:51:14;-9.20;99.90
23188;DHT22;11762;59.878;17.686;2023-12-04T13:53:41;-9.10;99.90
23188;DHT22;11762;59.878;17.686;2023-12-04T13:56:11;-9.10;99.90
23188;DHT22;11762;59.878;17.686;2023-12-04T13:58:51;-9.10;99.90
23188;DHT22;11762;59.878;17.686;2023-12-04T14:01:23;-9.10;99.90
23188;DHT22;11762;59.878;17.686;2023-12-04T14:03:51;-9.20;99.90
23188;DHT22;11762;59.878;17.686;2023-12-04T14:06:20;-9.20;99.90
23188;DHT22;11762;59.878;17.686;2023-12-04T14:08:47;-9.10;99.90
23188;DHT22;11762;59.878;17.686;2023-12-04T14:11:14;-9.20;99.90
23188;DHT22;11762;59.878;17.686;2023-12-04T14:13:41;-9.20;99.90
23188;DHT22;11762;59.878;17.686;2023-12-04T14:16:09;-9.20;99.90
23188;DHT22;11762;59.878;17.686;2023-12-04T14:18:36;-9.10;99.90
23188;DHT22;11762;59.878;17.686;2023-12-04T14:21:04;-9.10;99.90
23188;DHT22;11762;59.878;17.686;2023-12-04T14:23:32;-9.10;99.90
23188;DHT22;11762;59.878;17.686;2023-12-04T14:25:59;-9.20;99.90
23188;DHT22;11762;59.878;17.686;2023-12-04T14:28:27;-9.20;99.90
23188;DHT22;11762;59.878;17.686;2023-12-04T14:30:54;-9.20;99.90
23188;DHT22;11762;59.878;17.686;2023-12-04T14:33:21;-9.20;99.90
23188;DHT22;11762;59.878;17.686;2023-12-04T14:35:48;-9.30;99.90
23188;DHT22;11762;59.878;17.686;2023-12-04T14:38:16;-9.40;99.90
23188;DHT22;11762;59.878;17.686;2023-12-04T14:40:44;-9.50;99.90
23188;DHT22;11762;59.878;17.686;2023-12-04T14:43:11;-9.30;99.90
23188;DHT22;11762;59.878;17.686;2023-12-04T14:45:39;-9.40;99.90
23188;DHT22;11762;59.878;17.686;2023-12-04T14:48:06;-9.50;99.90
23188;DHT22;11762;59.878;17.686;2023-12-04T14:50:33;-9.70;99.90
23188;DHT22;11762;59.878;17.686;2023-12-04T14:53:01;-9.70;99.90
23188;DHT22;11762;59.878;17.686;2023-12-04T14:55:42;-9.80;99.90
23188;DHT22;11762;59.878;17.686;2023-12-04T14:58:24;-9.90;99.90
23188;DHT22;11762;59.878;17.686;2023-12-04T15:01:07;-10.00;99.90
23188;DHT22;11762;59.878;17.686;2023-12-04T15:04:17;-10.00;99.90
23188;DHT22;11762;59.878;17.686;2023-12-04T15:07:20;-10.10;99.90
23188;DHT22;11762;59.878;17.686;2023-12-04T15:10:12;-10.20;99.90
23188;DHT22;11762;59.878;17.686;2023-12-04T15:13:04;-10.30;99.90
23188;DHT22;11762;59.878;17.686;2023-12-04T15:16:03;-10.40;99.90
23188;DHT22;11762;59.878;17.686;2023-12-04T15:18:46;-10.50;99.90
23188;DHT22;11762;59.878;17.686;2023-12-04T15:21:40;-10.60;99.90
23188;DHT22;11762;59.878;17.686;2023-12-04T15:24:06;-10.60;99.90
23188;DHT22;11762;59.878;17.686;2023-12-04T15:26:33;-10.70;99.90
23188;DHT22;11762;59.878;17.686;2023-12-04T15:29:00;-10.90;99.90
23188;DHT22;11762;59.878;17.686;2023-12-04T15:31:31;-10.90;99.90
23188;DHT22;11762;59.878;17.686;2023-12-04T15:33:57;-10.70;99.90
23188;DHT22;11762;59.878;17.686;2023-12-04T15:36:24;-10.50;99.90
23188;DHT22;11762;59.878;17.686;2023-12-04T15:38:51;-10.60;99.90
23188;DHT22;11762;59.878;17.686;2023-12-04T15:41:17;-10.70;99.90
23188;DHT22;11762;59.878;17.686;2023-12-04T15:43:46;-10.80;99.90
23188;DHT22;11762;59.878;17.686;2023-12-04T15:46:14;-10.80;99.90
23188;DHT22;11762;59.878;17.686;2023-12-04T15:48:44;-10.90;99.90